Time;durP1;ratioP1;P1;durP2;ratioP2;P2;SDS_P1;SDS_P2;PMS_P1;PMS_P2;Temp;Humidity;BMP_temperature;BMP_pressure;BME280_temperature;BME280_humidity;BME280_pressure;Samples;Min_cycle;Max_cycle;Signal;HPM_P1;HPM_P2
2023/04/02 00:01:18;;;;;;;10.35;6.40;;;4.70;99.90;;;;;;5035192;28;20057;-79
2023/04/02 00:03:43;;;;;;;12.40;7.45;;;5.00;99.90;;;;;;5017541;28;20400;-79
2023/04/02 00:06:33;;;;;;;11.98;7.20;;;4.70;99.90;;;;;;5052933;28;20057;-80
2023/04/02 00:09:29;;;;;;;11.52;7.15;;;4.70;99.90;;;;;;5053072;28;20053;-80
2023/04/02 00:11:55;;;;;;;12.15;7.35;;;4.70;99.90;;;;;;5044455;28;20057;-78
2023/04/02 00:14:25;;;;;;;12.18;7.45;;;4.70;99.90;;;;;;5036448;28;20447;-77
2023/04/02 00:16:54;;;;;;;12.93;7.13;;;4.70;99.90;;;;;;5036768;28;20037;-78
2023/04/02 00:19:49;;;;;;;12.85;7.30;;;4.80;99.90;;;;;;5053370;28;20060;-79
2023/04/02 00:22:18;;;;;;;12.02;8.02;;;4.70;99.90;;;;;;5027095;28;20132;-79
2023/04/02 00:24:45;;;;;;;11.52;8.07;;;4.80;99.90;;;;;;5053264;28;20488;-80
2023/04/02 00:27:14;;;;;;;11.73;7.50;;;4.70;99.90;;;;;;5036576;28;20056;-79
2023/04/02 00:29:48;;;;;;;11.10;6.72;;;4.70;99.90;;;;;;5036150;28;20112;-77
2023/04/02 00:32:26;;;;;;;12.98;6.95;;;4.60;99.90;;;;;;5053348;28;20056;-75
2023/04/02 00:34:53;;;;;;;10.60;6.68;;;4.60;99.90;;;;;;5036481;28;20072;-77
2023/04/02 00:37:22;;;;;;;9.82;5.60;;;4.50;99.90;;;;;;5053633;28;20059;-79
2023/04/02 00:40:06;;;;;;;10.98;5.25;;;4.50;99.90;;;;;;5036454;28;20052;-77
2023/04/02 00:42:34;;;;;;;12.88;6.68;;;4.60;99.90;;;;;;5036641;28;20084;-80
2023/04/02 00:45:01;;;;;;;9.80;6.20;;;4.50;99.90;;;;;;5036823;28;20041;-80
2023/04/02 00:47:36;;;;;;;12.15;6.95;;;4.50;99.90;;;;;;5053358;28;20106;-80
2023/04/02 00:50:17;;;;;;;10.65;7.55;;;4.40;99.90;;;;;;5056632;28;20124;-78
2023/04/02 00:52:47;;;;;;;10.30;6.32;;;4.50;99.90;;;;;;5056603;28;20413;-79
2023/04/02 00:55:22;;;;;;;9.65;5.85;;;4.40;99.90;;;;;;5056985;28;20041;-81
2023/04/02 00:57:50;;;;;;;11.07;7.10;;;4.40;99.90;;;;;;5039715;28;20120;-78
2023/04/02 01:00:30;;;;;;;12.38;7.25;;;4.30;99.90;;;;;;5056744;28;20128;-78
2023/04/02 01:03:15;;;;;;;9.90;6.38;;;4.30;99.90;;;;;;5040547;28;20388;-81
2023/04/02 01:05:49;;;;;;;10.57;6.03;;;4.30;99.90;;;;;;5056572;28;20549;-80
2023/04/02 01:08:46;;;;;;;12.40;6.65;;;4.30;99.90;;;;;;5056532;28;20435;-78
2023/04/02 01:11:12;;;;;;;12.35;6.07;;;4.30;99.90;;;;;;5022955;28;20511;-79
2023/04/02 01:13:44;;;;;;;9.23;5.50;;;4.20;99.90;;;;;;5040164;28;20049;-78
2023/04/02 01:16:37;;;;;;;12.07;5.40;;;4.20;99.90;;;;;;5057440;28;20045;-80
2023/04/02 01:19:26;;;;;;;11.90;5.50;;;4.20;99.90;;;;;;5056065;28;20088;-78
2023/04/02 01:22:13;;;;;;;9.10;5.20;;;4.10;99.90;;;;;;5055902;28;20104;-78
2023/04/02 01:24:43;;;;;;;10.02;5.88;;;4.00;99.90;;;;;;5039470;28;20443;-81
2023/04/02 01:27:23;;;;;;;8.98;5.75;;;3.90;99.90;;;;;;5056022;28;20063;-77
2023/04/02 01:29:56;;;;;;;8.25;4.10;;;3.80;99.90;;;;;;5056019;28;20057;-78
2023/04/02 01:32:25;;;;;;;9.75;4.45;;;3.80;99.90;;;;;;5056182;28;20044;-78
2023/04/02 01:34:51;;;;;;;8.98;4.47;;;3.90;99.90;;;;;;5056493;28;20061;-78
2023/04/02 01:37:43;;;;;;;9.18;4.15;;;3.70;99.90;;;;;;5056227;28;20043;-77
2023/04/02 01:40:17;;;;;;;9.50;4.63;;;3.60;99.90;;;;;;5039268;28;20500;-78
2023/04/02 01:43:01;;;;;;;8.85;4.63;;;3.60;99.90;;;;;;5055876;28;20443;-77
2023/04/02 01:45:31;;;;;;;9.95;4.82;;;3.50;99.90;;;;;;5056462;28;20053;-77
2023/04/02 01:47:57;;;;;;;9.88;4.70;;;3.40;99.90;;;;;;5056424;28;20047;-80
2023/04/02 01:50:36;;;;;;;8.88;4.35;;;3.40;99.90;;;;;;5038604;28;20044;-82
2023/04/02 01:53:08;;;;;;;10.02;4.75;;;3.40;99.90;;;;;;5056174;28;20124;-78
2023/04/02 01:55:39;;;;;;;8.52;4.57;;;3.40;99.90;;;;;;5039246;28;20061;-80
2023/04/02 01:58:07;;;;;;;11.02;5.15;;;3.30;99.90;;;;;;5055349;28;20053;-79
2023/04/02 02:00:36;;;;;;;11.15;4.85;;;3.10;99.90;;;;;;5055298;28;20451;-82
2023/04/02 02:03:02;;;;;;;9.25;4.28;;;3.20;99.90;;;;;;5055575;28;20053;-82
2023/04/02 02:05:28;;;;;;;10.20;4.75;;;3.00;99.90;;;;;;5038630;28;20045;-80
2023/04/02 02:07:56;;;;;;;9.88;4.07;;;3.00;99.90;;;;;;5055101;28;20056;-79
2023/04/02 02:10:28;;;;;;;8.93;3.30;;;2.90;99.90;;;;;;5022187;28;20064;-77
2023/04/02 02:12:59;;;;;;;7.22;2.80;;;2.90;99.90;;;;;;5054976;28;20052;-79
2023/04/02 02:15:26;;;;;;;7.97;3.40;;;2.80;99.90;;;;;;5039171;28;20049;-80
2023/04/02 02:18:03;;;;;;;6.15;2.55;;;2.80;99.90;;;;;;5038708;28;20062;-80
2023/04/02 02:20:29;;;;;;;6.78;2.60;;;2.80;99.90;;;;;;5054870;28;20154;-78
2023/04/02 02:22:56;;;;;;;7.97;2.90;;;2.70;99.90;;;;;;5041160;28;20175;-82
2023/04/02 02:25:29;;;;;;;10.45;3.40;;;2.80;99.90;;;;;;5035167;28;20060;-81
2023/04/02 02:28:02;;;;;;;10.00;3.92;;;2.70;99.90;;;;;;5018887;28;20080;-78
2023/04/02 02:30:27;;;;;;;;;;;2.60;99.90;;;;;;5018757;28;20052;-77
2023/04/02 02:33:05;;;;;;;8.20;4.07;;;2.50;99.90;;;;;;5034396;28;19921;-79
2023/04/02 02:35:39;;;;;;;8.10;3.97;;;2.50;99.90;;;;;;5034601;28;20115;-78
2023/04/02 02:38:25;;;;;;;7.82;3.63;;;2.40;99.90;;;;;;5034868;28;20064;-82
2023/04/02 02:40:55;;;;;;;8.63;3.63;;;2.40;99.90;;;;;;5034834;28;20053;-81
2023/04/02 02:43:22;;;;;;;7.70;3.15;;;2.40;99.90;;;;;;5034816;28;20081;-81
2023/04/02 02:45:49;;;;;;;8.80;3.63;;;2.30;99.90;;;;;;5018652;28;20080;-79
2023/04/02 02:48:19;;;;;;;8.95;3.63;;;2.30;99.90;;;;;;5034467;28;20089;-81
2023/04/02 02:50:45;;;;;;;7.22;3.63;;;2.30;99.90;;;;;;5017740;28;20050;-81
2023/04/02 02:53:23;;;;;;;12.18;4.15;;;2.30;99.90;;;;;;5051131;28;20053;-80
2023/04/02 02:55:57;;;;;;;10.38;4.18;;;2.20;99.90;;;;;;5037565;28;20048;-77
2023/04/02 02:58:27;;;;;;;8.00;3.85;;;2.20;99.90;;;;;;5037841;28;20132;-81
2023/04/02 03:00:53;;;;;;;10.10;3.78;;;2.10;99.90;;;;;;5054671;28;20056;-81
2023/04/02 03:03:23;;;;;;;9.52;3.92;;;2.20;99.90;;;;;;5037528;28;20044;-78
2023/04/02 03:05:52;;;;;;;9.13;3.58;;;2.10;99.90;;;;;;5054394;28;20140;-80
2023/04/02 03:08:53;;;;;;;10.15;4.20;;;2.10;99.90;;;;;;5054278;28;20045;-80
2023/04/02 03:11:51;;;;;;;8.32;3.83;;;2.10;99.90;;;;;;5053388;28;20549;-80
2023/04/02 03:14:32;;;;;;;9.73;3.80;;;2.50;99.90;;;;;;5035626;28;20515;-81
2023/04/02 03:17:18;;;;;;;8.07;3.67;;;2.20;99.90;;;;;;5054164;28;20053;-81
2023/04/02 03:20:05;;;;;;;10.30;4.20;;;2.20;99.90;;;;;;5037532;28;20048;-80
2023/04/02 03:22:43;;;;;;;9.02;2.97;;;2.20;99.90;;;;;;5038114;28;20436;-81
2023/04/02 03:25:22;;;;;;;8.50;3.22;;;2.20;99.90;;;;;;5037556;28;20083;-81
2023/04/02 03:27:53;;;;;;;9.40;3.58;;;2.30;99.90;;;;;;5053958;28;20373;-81
2023/04/02 03:30:46;;;;;;;9.57;4.07;;;2.20;99.90;;;;;;5054044;28;20053;-78
2023/04/02 03:33:43;;;;;;;10.20;4.00;;;2.10;99.90;;;;;;5053445;28;20063;-81
2023/04/02 03:36:30;;;;;;;8.00;3.60;;;2.10;99.90;;;;;;5053729;28;20053;-80
2023/04/02 03:39:32;;;;;;;8.73;3.78;;;2.20;99.90;;;;;;5053882;28;20481;-76
2023/04/02 03:42:06;;;;;;;8.43;3.67;;;2.30;99.90;;;;;;5053676;28;20529;-80
2023/04/02 03:44:58;;;;;;;8.20;3.20;;;2.30;99.90;;;;;;5053477;28;20126;-81
2023/04/02 03:47:37;;;;;;;9.05;3.33;;;2.20;99.90;;;;;;5035616;28;20049;-77
2023/04/02 03:50:10;;;;;;;5.57;2.28;;;2.20;99.90;;;;;;5053320;28;20127;-80
2023/04/02 03:52:37;;;;;;;9.02;3.40;;;2.20;99.90;;;;;;5052892;28;20408;-80
2023/04/02 03:55:16;;;;;;;8.38;3.15;;;2.20;99.90;;;;;;5053553;28;20044;-82
2023/04/02 03:57:51;;;;;;;9.60;3.28;;;2.20;99.90;;;;;;5053643;28;20072;-82
2023/04/02 04:00:31;;;;;;;5.60;2.17;;;2.10;99.90;;;;;;5053672;28;20057;-79
2023/04/02 04:03:10;;;;;;;7.88;2.95;;;2.20;99.90;;;;;;5053250;28;20053;-83
2023/04/02 04:05:45;;;;;;;9.32;3.33;;;2.30;99.90;;;;;;5036687;28;20107;-80
2023/04/02 04:08:19;;;;;;;8.75;3.10;;;2.20;99.90;;;;;;5053025;28;20036;-81
2023/04/02 04:10:49;;;;;;;8.95;3.10;;;2.10;99.90;;;;;;5052868;28;20084;-80
2023/04/02 04:13:21;;;;;;;8.18;3.08;;;2.10;99.90;;;;;;5053201;28;20481;-82
2023/04/02 04:15:50;;;;;;;11.50;3.53;;;2.10;99.90;;;;;;5036309;28;20049;-78
2023/04/02 04:18:23;;;;;;;6.97;2.80;;;2.10;99.90;;;;;;5053421;28;20053;-79
2023/04/02 04:20:58;;;;;;;6.75;3.00;;;2.10;99.90;;;;;;5052930;28;20651;-83
2023/04/02 04:23:36;;;;;;;9.45;3.03;;;2.00;99.90;;;;;;5056890;28;20055;-79
2023/04/02 04:26:25;;;;;;;9.80;3.25;;;2.10;99.90;;;;;;5040839;28;20071;-80
2023/04/02 04:29:08;;;;;;;8.23;2.72;;;2.00;99.90;;;;;;5056258;28;20053;-81
2023/04/02 04:31:48;;;;;;;9.63;2.90;;;2.00;99.90;;;;;;5040457;28;20047;-80
2023/04/02 04:34:35;;;;;;;9.95;2.92;;;2.00;99.90;;;;;;5057060;28;20041;-80
2023/04/02 04:37:06;;;;;;;8.65;2.85;;;2.00;99.90;;;;;;5056810;28;20045;-81
2023/04/02 04:39:48;;;;;;;6.90;2.53;;;1.90;99.90;;;;;;5040694;28;20120;-81
2023/04/02 04:42:26;;;;;;;6.47;2.17;;;2.10;99.90;;;;;;5056662;28;20045;-78
2023/04/02 04:45:09;;;;;;;5.75;1.70;;;2.00;99.90;;;;;;5056419;28;20165;-80
2023/04/02 04:47:39;;;;;;;6.90;2.45;;;2.10;99.90;;;;;;5040034;28;20100;-79
2023/04/02 04:50:29;;;;;;;7.55;2.70;;;1.90;99.90;;;;;;5039885;28;20099;-79
2023/04/02 04:52:54;;;;;;;6.35;2.30;;;1.90;99.90;;;;;;5040100;28;20408;-81
2023/04/02 04:55:37;;;;;;;8.57;2.42;;;1.80;99.90;;;;;;5056478;28;20048;-79
2023/04/02 04:58:24;;;;;;;8.63;2.63;;;1.80;99.90;;;;;;5056757;28;20045;-82
2023/04/02 05:00:59;;;;;;;8.25;2.60;;;1.80;99.90;;;;;;5056599;28;20404;-82
2023/04/02 05:03:31;;;;;;;7.07;3.00;;;1.80;99.90;;;;;;5056359;28;20059;-80
2023/04/02 05:06:12;;;;;;;8.35;2.50;;;1.80;99.90;;;;;;5056258;28;20469;-78
2023/04/02 05:08:46;;;;;;;7.57;2.63;;;1.80;99.90;;;;;;5056256;28;20049;-79
2023/04/02 05:11:29;;;;;;;7.82;2.70;;;1.80;99.90;;;;;;5055834;28;20084;-78
2023/04/02 05:14:00;;;;;;;8.13;2.63;;;1.90;99.90;;;;;;5055855;28;20055;-77
2023/04/02 05:17:09;;;;;;;5.70;2.42;;;1.80;99.90;;;;;;5056003;28;20427;-80
2023/04/02 05:19:47;;;;;;;8.32;2.53;;;1.80;99.90;;;;;;4959750;28;20050;-81
2023/04/02 05:22:46;;;;;;;8.23;2.78;;;1.80;99.90;;;;;;4959626;28;20062;-79
2023/04/02 05:25:30;;;;;;;10.95;2.90;;;1.80;99.90;;;;;;5018187;28;20150;-80
2023/04/02 05:28:26;;;;;;;7.15;2.00;;;1.80;99.90;;;;;;5035923;28;20045;-78
2023/04/02 05:31:00;;;;;;;10.35;2.60;;;1.90;99.90;;;;;;5024580;28;20053;-82
2023/04/02 05:33:32;;;;;;;9.07;2.33;;;2.00;99.90;;;;;;5035088;28;20045;-80
2023/04/02 05:36:11;;;;;;;10.23;3.50;;;2.00;99.90;;;;;;5019208;28;20041;-77
2023/04/02 05:38:43;;;;;;;8.25;2.65;;;1.90;99.90;;;;;;5035369;28;20041;-79
2023/04/02 05:41:31;;;;;;;6.68;1.80;;;1.90;99.90;;;;;;5019295;28;20055;-82
2023/04/02 05:44:41;;;;;;;8.02;2.00;;;1.90;99.90;;;;;;5035396;28;20053;-80
2023/04/02 05:47:25;;;;;;;7.55;2.25;;;1.90;99.90;;;;;;4966490;28;20055;-79
2023/04/02 05:50:19;;;;;;;8.18;2.35;;;1.80;99.90;;;;;;5035436;28;20541;-78
2023/04/02 05:52:50;;;;;;;9.80;2.33;;;1.70;99.90;;;;;;5044752;28;20053;-79
2023/04/02 05:55:16;;;;;;;7.95;2.05;;;1.70;99.90;;;;;;5018904;28;20106;-79
2023/04/02 05:57:50;;;;;;;6.50;2.30;;;1.80;99.90;;;;;;5035386;28;20132;-77
2023/04/02 06:00:38;;;;;;;9.65;2.42;;;1.80;99.90;;;;;;5035637;28;20049;-80
2023/04/02 06:03:15;;;;;;;13.35;6.43;;;1.90;99.90;;;;;;5018865;28;20491;-78
2023/04/02 06:05:44;;;;;;;10.05;2.80;;;1.80;99.90;;;;;;5018982;28;20209;-77
2023/04/02 06:08:34;;;;;;;6.05;2.08;;;1.90;99.90;;;;;;5035343;28;20122;-80
2023/04/02 06:11:25;;;;;;;9.25;2.45;;;1.90;99.90;;;;;;5035199;28;20044;-80
2023/04/02 06:13:51;;;;;;;8.88;2.35;;;1.90;99.90;;;;;;5018493;28;20045;-79
2023/04/02 06:16:20;;;;;;;8.95;2.60;;;1.90;99.90;;;;;;5018540;28;20052;-80
2023/04/02 06:18:46;;;;;;;12.90;5.93;;;1.90;99.90;;;;;;5018465;28;20048;-78
2023/04/02 06:21:16;;;;;;;9.02;2.67;;;1.90;99.90;;;;;;5035268;28;20393;-79
2023/04/02 06:23:55;;;;;;;5.30;1.52;;;2.00;99.90;;;;;;5054526;28;20098;-80
2023/04/02 06:26:36;;;;;;;7.82;2.05;;;2.00;99.90;;;;;;5054409;28;20048;-81
2023/04/02 06:29:17;;;;;;;7.53;2.15;;;2.00;99.90;;;;;;5054672;28;20048;-78
2023/04/02 06:31:58;;;;;;;9.15;2.15;;;2.10;99.90;;;;;;5054497;28;20132;-78
2023/04/02 06:34:27;;;;;;;5.72;1.67;;;2.10;99.90;;;;;;5037628;28;20033;-78
2023/04/02 06:37:03;;;;;;;5.65;1.58;;;2.20;99.90;;;;;;5054796;28;20501;-81
2023/04/02 06:39:29;;;;;;;9.73;2.10;;;2.20;99.90;;;;;;5053882;28;20052;-79
2023/04/02 06:42:15;;;;;;;7.50;2.10;;;2.20;99.90;;;;;;5037529;28;20059;-77
2023/04/02 06:44:41;;;;;;;5.22;1.77;;;2.30;99.90;;;;;;5054758;28;20049;-80
2023/04/02 06:47:41;;;;;;;6.40;2.08;;;2.30;99.90;;;;;;5054105;28;20048;-79
2023/04/02 06:50:25;;;;;;;4.55;1.27;;;2.40;99.90;;;;;;5054121;28;20045;-83
2023/04/02 06:52:55;;;;;;;8.88;2.10;;;2.50;99.90;;;;;;5014568;28;20050;-80
2023/04/02 06:55:45;;;;;;;5.65;1.50;;;2.60;99.90;;;;;;5014477;28;20049;-80
2023/04/02 06:58:11;;;;;;;7.60;2.10;;;2.60;99.90;;;;;;5014731;28;20038;-79
2023/04/02 07:00:42;;;;;;;4.75;1.65;;;2.60;99.90;;;;;;4998268;28;20433;-78
2023/04/02 07:03:27;;;;;;;7.20;1.90;;;2.60;99.90;;;;;;5014627;28;20114;-79
2023/04/02 07:05:54;;;;;;;8.02;1.83;;;2.80;99.90;;;;;;5014638;28;20111;-80
2023/04/02 07:08:21;;;;;;;6.68;1.90;;;2.80;99.90;;;;;;5013910;28;20050;-80
2023/04/02 07:10:47;;;;;;;7.80;2.40;;;2.70;99.90;;;;;;5014560;28;20120;-80
2023/04/02 07:13:18;;;;;;;8.45;1.90;;;2.80;99.90;;;;;;4998183;28;20494;-82
2023/04/02 07:15:46;;;;;;;7.82;1.90;;;2.80;99.90;;;;;;5014731;28;20508;-81
2023/04/02 07:18:29;;;;;;;9.02;2.00;;;3.00;99.90;;;;;;5014306;28;20041;-81
2023/04/02 07:20:55;;;;;;;6.53;1.58;;;3.30;99.90;;;;;;4998660;28;20053;-83
2023/04/02 07:23:21;;;;;;;6.57;1.63;;;3.50;99.90;;;;;;5014117;28;20085;-81
2023/04/02 07:25:49;;;;;;;7.88;2.10;;;3.70;99.90;;;;;;4997527;28;20046;-80
2023/04/02 07:28:16;;;;;;;6.50;1.90;;;3.80;99.90;;;;;;4998189;28;20085;-82
2023/04/02 07:30:42;;;;;;;6.35;1.90;;;4.00;99.90;;;;;;4997541;28;20053;-80
2023/04/02 07:33:16;;;;;;;6.00;1.50;;;4.10;99.90;;;;;;5014691;28;20076;-82
2023/04/02 07:35:43;;;;;;;8.02;1.85;;;4.20;99.90;;;;;;5014126;28;20401;-80
2023/04/02 07:38:09;;;;;;;4.55;1.25;;;4.40;99.90;;;;;;4980892;28;20045;-82
2023/04/02 07:40:35;;;;;;;6.63;1.90;;;4.50;99.90;;;;;;5013229;28;20046;-82
2023/04/02 07:43:01;;;;;;;14.35;5.57;;;4.60;99.90;;;;;;4997815;28;20111;-80
2023/04/02 07:45:27;;;;;;;4.82;1.17;;;4.80;99.90;;;;;;4997694;28;20048;-81
2023/04/02 07:47:53;;;;;;;6.70;1.77;;;4.70;99.90;;;;;;4997670;28;20052;-79
2023/04/02 07:50:18;;;;;;;6.15;1.65;;;4.80;99.90;;;;;;5013335;28;20042;-81
2023/04/02 07:52:45;;;;;;;6.85;1.85;;;5.10;99.90;;;;;;5052651;28;20115;-79
2023/04/02 07:55:13;;;;;;;6.95;1.77;;;5.20;99.90;;;;;;5036477;28;20045;-79
2023/04/02 07:57:47;;;;;;;4.43;1.48;;;5.10;99.90;;;;;;5037033;28;20473;-79
2023/04/02 08:00:14;;;;;;;5.97;1.65;;;5.00;99.90;;;;;;5053712;28;20552;-82
2023/04/02 08:02:40;;;;;;;6.18;1.67;;;4.60;99.90;;;;;;5036420;28;20059;-82
2023/04/02 08:05:07;;;;;;;6.47;2.10;;;4.50;99.90;;;;;;5052536;28;20080;-82
2023/04/02 08:07:37;;;;;;;2.55;0.77;;;4.70;99.90;;;;;;5053497;28;20485;-78
2023/04/02 08:10:05;;;;;;;6.38;1.77;;;5.10;99.90;;;;;;5020278;28;20044;-80
2023/04/02 08:12:34;;;;;;;7.10;2.00;;;4.90;99.90;;;;;;5036653;28;20053;-80
2023/04/02 08:15:00;;;;;;;5.03;1.50;;;4.90;99.90;;;;;;5053512;28;20106;-81
2023/04/02 08:17:30;;;;;;;9.65;2.47;;;5.10;99.90;;;;;;5053687;28;20045;-80
2023/04/02 08:20:03;;;;;;;6.50;2.00;;;4.90;99.90;;;;;;5053628;28;20092;-79
2023/04/02 08:22:29;;;;;;;6.20;1.90;;;4.90;99.90;;;;;;5020986;28;20045;-81
2023/04/02 08:24:55;;;;;;;7.13;1.80;;;5.00;99.90;;;;;;5053316;28;20496;-79
2023/04/02 08:27:25;;;;;;;7.95;1.70;;;5.20;99.90;;;;;;5036663;28;20049;-80
2023/04/02 08:29:51;;;;;;;6.50;1.80;;;5.40;99.90;;;;;;5052577;28;20057;-79
2023/04/02 08:32:17;;;;;;;7.32;1.58;;;5.80;99.90;;;;;;5035795;28;20048;-80
2023/04/02 08:34:43;;;;;;;9.15;1.75;;;6.00;99.90;;;;;;5053376;28;20052;-80
2023/04/02 08:37:13;;;;;;;5.53;1.30;;;6.20;99.90;;;;;;5069749;28;20131;-79
2023/04/02 08:39:39;;;;;;;7.35;1.90;;;6.40;99.90;;;;;;5019909;28;20053;-77
2023/04/02 08:42:32;;;;;;;6.05;1.13;;;6.50;99.90;;;;;;5052891;28;20076;-80
2023/04/02 08:45:17;;;;;;;4.95;1.45;;;6.50;99.90;;;;;;5053563;28;20045;-81
2023/04/02 08:47:46;;;;;;;5.47;1.60;;;6.60;99.90;;;;;;5053010;28;20056;-80
2023/04/02 08:50:31;;;;;;;7.43;1.83;;;7.00;99.90;;;;;;5052845;28;20391;-80
2023/04/02 08:53:01;;;;;;;6.63;1.70;;;6.90;99.90;;;;;;5052280;28;20065;-81
2023/04/02 08:56:16;;;;;;;7.25;1.80;;;6.70;99.90;;;;;;5070253;28;20056;-81
2023/04/02 08:58:53;;;;;;;6.53;1.63;;;6.50;99.90;;;;;;4960390;28;20061;-82
2023/04/02 09:01:37;;;;;;;8.45;2.10;;;6.50;99.90;;;;;;4976325;28;20050;-78
2023/04/02 09:04:13;;;;;;;5.47;1.55;;;6.00;99.90;;;;;;5015853;28;20060;-83
2023/04/02 09:06:39;;;;;;;7.55;2.00;;;6.00;99.90;;;;;;5053124;28;20477;-79
2023/04/02 09:09:07;;;;;;;3.90;0.98;;;5.60;99.90;;;;;;5037752;28;20191;-78
2023/04/02 09:11:59;;;;;;;7.00;1.70;;;5.90;99.90;;;;;;5056207;28;20044;-81
2023/04/02 09:14:49;;;;;;;6.85;2.30;;;6.10;99.90;;;;;;5039894;28;20051;-80
2023/04/02 09:17:20;;;;;;;5.13;1.10;;;6.10;99.90;;;;;;5056110;28;20049;-80
2023/04/02 09:19:56;;;;;;;6.90;1.80;;;6.50;99.90;;;;;;5056115;28;20124;-80
2023/04/02 09:22:31;;;;;;;6.57;1.80;;;6.50;99.90;;;;;;5056243;28;20045;-82
2023/04/02 09:24:59;;;;;;;5.85;1.70;;;6.80;99.90;;;;;;5056328;28;20045;-81
2023/04/02 09:27:32;;;;;;;3.30;1.13;;;7.00;99.90;;;;;;5056002;28;20473;-82
2023/04/02 09:30:07;;;;;;;5.20;1.52;;;7.20;99.90;;;;;;5055509;28;20045;-80
2023/04/02 09:32:51;;;;;;;6.15;1.90;;;6.90;99.90;;;;;;5039576;28;20136;-80
2023/04/02 09:35:20;;;;;;;6.00;1.80;;;6.60;99.90;;;;;;5039175;28;20477;-82
2023/04/02 09:37:46;;;;;;;5.18;1.70;;;6.80;99.90;;;;;;5039456;28;20090;-78
2023/04/02 09:40:24;;;;;;;6.40;1.80;;;6.80;99.90;;;;;;5023342;28;20044;-82
2023/04/02 09:43:02;;;;;;;5.55;1.80;;;6.80;99.90;;;;;;5056064;28;20056;-83
2023/04/02 09:45:27;;;;;;;6.65;2.10;;;7.00;99.90;;;;;;5055632;28;20128;-81
2023/04/02 09:47:56;;;;;;;6.25;1.77;;;6.80;99.90;;;;;;5039171;28;20135;-81
2023/04/02 09:50:25;;;;;;;6.15;1.50;;;6.70;99.90;;;;;;5039415;28;20194;-81
2023/04/02 09:52:51;;;;;;;5.95;2.00;;;6.70;99.90;;;;;;5038632;28;20061;-82
2023/04/02 09:55:21;;;;;;;6.68;1.70;;;6.80;99.90;;;;;;5038734;28;20052;-82
2023/04/02 09:57:48;;;;;;;7.00;1.77;;;6.90;99.90;;;;;;5055376;28;20052;-80
2023/04/02 10:00:22;;;;;;;6.90;1.60;;;6.90;99.90;;;;;;5055925;28;20053;-81
2023/04/02 10:03:05;;;;;;;5.88;1.70;;;6.90;99.90;;;;;;5038921;28;20059;-81
2023/04/02 10:05:33;;;;;;;6.18;1.40;;;7.40;99.90;;;;;;5055001;28;20048;-81
2023/04/02 10:08:15;;;;;;;5.53;1.67;;;7.80;99.90;;;;;;5055599;28;20053;-81
2023/04/02 10:10:45;;;;;;;5.03;1.50;;;7.90;98.60;;;;;;5055167;28;20136;-79
2023/04/02 10:13:23;;;;;;;3.20;1.02;;;7.50;97.00;;;;;;5039422;28;20384;-80
2023/04/02 10:16:31;;;;;;;8.73;1.90;;;7.50;98.70;;;;;;5055426;28;20400;-80
2023/04/02 10:18:58;;;;;;;4.82;1.20;;;7.60;98.30;;;;;;5045404;28;20060;-79
2023/04/02 10:21:27;;;;;;;6.65;1.77;;;7.90;99.00;;;;;;5054763;28;20041;-81
2023/04/02 10:23:54;;;;;;;7.13;1.80;;;8.00;98.90;;;;;;5054729;28;20052;-82
2023/04/02 10:26:31;;;;;;;5.90;1.50;;;8.30;99.70;;;;;;5055291;28;20063;-80
2023/04/02 10:29:16;;;;;;;3.85;1.17;;;8.20;98.10;;;;;;5038367;28;20099;-78
2023/04/02 10:31:56;;;;;;;5.35;1.58;;;8.50;98.60;;;;;;5054390;28;20049;-78
2023/04/02 10:34:48;;;;;;;6.32;1.63;;;8.50;98.60;;;;;;5054899;28;20048;-80
2023/04/02 10:37:49;;;;;;;5.70;1.40;;;8.50;98.40;;;;;;5017173;28;20049;-79
2023/04/02 10:40:26;;;;;;;5.55;1.95;;;8.90;97.10;;;;;;5038246;28;20049;-81
2023/04/02 10:43:20;;;;;;;5.47;1.75;;;8.90;97.00;;;;;;5038017;28;20064;-80
2023/04/02 10:46:23;;;;;;;5.18;1.73;;;8.50;98.30;;;;;;5054258;28;20390;-80
2023/04/02 10:49:21;;;;;;;;;;;8.80;98.20;;;;;;5055331;28;20053;-81
2023/04/02 10:52:05;;;;;;;6.15;1.80;;;8.40;98.40;;;;;;5042750;28;19927;-79
2023/04/02 10:54:43;;;;;;;5.40;1.63;;;8.20;96.90;;;;;;5054468;28;20053;-79
2023/04/02 10:57:23;;;;;;;4.85;1.42;;;8.50;97.70;;;;;;5037362;28;20049;-77
2023/04/02 11:00:19;;;;;;;5.63;1.65;;;8.40;95.60;;;;;;5037888;28;20111;-81
2023/04/02 11:02:48;;;;;;;7.50;3.65;;;8.30;96.10;;;;;;5033435;28;20115;-80
2023/04/02 11:05:45;;;;;;;7.22;2.35;;;8.50;97.10;;;;;;5054377;28;20049;-81
2023/04/02 11:08:17;;;;;;;8.02;2.25;;;8.40;96.90;;;;;;5053556;28;20053;-79
2023/04/02 11:11:11;;;;;;;8.88;2.35;;;8.40;97.40;;;;;;5054071;28;20128;-80
2023/04/02 11:13:58;;;;;;;5.47;1.42;;;8.60;97.20;;;;;;5053852;28;20048;-81
2023/04/02 11:16:26;;;;;;;6.07;1.80;;;8.90;96.40;;;;;;5054066;28;20045;-80
2023/04/02 11:19:07;;;;;;;5.40;1.60;;;8.60;96.20;;;;;;5037179;28;20057;-80
2023/04/02 11:21:43;;;;;;;5.32;1.40;;;8.60;95.40;;;;;;5053656;28;20110;-81
2023/04/02 11:24:29;;;;;;;7.20;1.50;;;8.60;97.20;;;;;;5037709;28;20241;-80
2023/04/02 11:27:10;;;;;;;7.32;1.58;;;8.70;97.50;;;;;;5037348;28;20052;-80
2023/04/02 11:30:19;;;;;;;5.80;1.60;;;9.00;97.10;;;;;;5053530;28;20144;-80
2023/04/02 11:32:48;;;;;;;5.20;1.60;;;8.90;95.70;;;;;;5050989;28;20115;-80
2023/04/02 11:35:24;;;;;;;5.80;1.80;;;8.80;97.50;;;;;;5054369;28;20055;-77
2023/04/02 11:37:50;;;;;;;5.30;1.58;;;9.00;96.90;;;;;;5054407;28;20052;-80
2023/04/02 11:40:15;;;;;;;6.20;1.67;;;9.00;96.70;;;;;;5036700;28;20045;-80
2023/04/02 11:42:44;;;;;;;5.80;1.60;;;9.10;96.10;;;;;;5054124;28;20056;-80
2023/04/02 11:45:19;;;;;;;4.90;1.65;;;9.20;95.80;;;;;;5053566;28;20400;-80
2023/04/02 11:48:02;;;;;;;5.95;1.70;;;9.10;96.50;;;;;;5053473;28;20052;-78
2023/04/02 11:50:37;;;;;;;5.05;1.50;;;9.10;94.50;;;;;;5036594;28;20473;-79
2023/04/02 11:53:13;;;;;;;6.70;1.50;;;9.10;95.20;;;;;;5052923;28;20061;-80
2023/04/02 11:56:16;;;;;;;6.13;1.60;;;8.90;95.40;;;;;;5053376;28;20095;-75
2023/04/02 11:58:54;;;;;;;5.70;1.55;;;8.90;96.10;;;;;;5023642;28;20063;-82
2023/04/02 12:01:32;;;;;;;2.45;0.82;;;9.10;95.80;;;;;;5053577;28;20492;-79
2023/04/02 12:04:17;;;;;;;4.30;1.35;;;9.40;92.70;;;;;;5053245;28;20052;-81
2023/04/02 12:06:51;;;;;;;4.60;1.40;;;9.40;95.30;;;;;;5053456;28;20056;-81
2023/04/02 12:09:42;;;;;;;5.30;1.30;;;9.70;95.70;;;;;;5036413;28;20094;-82
2023/04/02 12:12:23;;;;;;;4.22;1.30;;;9.80;94.00;;;;;;5053224;28;20044;-78
2023/04/02 12:14:52;;;;;;;5.53;1.63;;;9.90;95.20;;;;;;5053442;28;20053;-79
2023/04/02 12:17:30;;;;;;;5.28;1.70;;;9.90;94.40;;;;;;5036652;28;20053;-82
2023/04/02 12:20:07;;;;;;;5.35;1.60;;;9.80;95.20;;;;;;5036407;28;20048;-81
2023/04/02 12:22:45;;;;;;;5.05;1.05;;;10.00;95.00;;;;;;5052984;28;20433;-80
2023/04/02 12:25:22;;;;;;;4.35;1.10;;;10.10;94.80;;;;;;5053036;28;20123;-78
2023/04/02 12:28:08;;;;;;;4.60;1.40;;;10.30;93.90;;;;;;5036449;28;20563;-82
2023/04/02 12:30:34;;;;;;;1.95;0.88;;;10.10;93.90;;;;;;5053563;28;20056;-81
2023/04/02 12:33:36;;;;;;;4.78;1.30;;;10.00;91.80;;;;;;5053368;28;20052;-79
2023/04/02 12:36:16;;;;;;;5.45;1.60;;;9.90;92.50;;;;;;5046883;28;20109;-81
2023/04/02 12:38:51;;;;;;;6.57;2.10;;;9.70;92.70;;;;;;5036920;28;20433;-79
2023/04/02 12:41:28;;;;;;;5.70;1.50;;;9.70;93.90;;;;;;5053875;28;20045;-80
2023/04/02 12:44:10;;;;;;;4.72;1.30;;;9.80;95.10;;;;;;5049593;28;20060;-81
2023/04/02 12:46:38;;;;;;;5.13;1.50;;;10.00;94.60;;;;;;5040186;28;20044;-81
2023/04/02 12:49:20;;;;;;;5.63;1.40;;;10.10;94.00;;;;;;5040014;28;20052;-81
2023/04/02 12:51:47;;;;;;;;;;;10.20;93.70;;;;;;5056946;28;20083;-82
2023/04/02 12:54:19;;;;;;;2.42;0.85;;;10.00;92.50;;;;;;5023293;28;20039;-80
2023/04/02 12:56:46;;;;;;;5.72;1.70;;;10.20;91.20;;;;;;5056468;28;20052;-81
2023/04/02 12:59:34;;;;;;;5.28;1.40;;;10.20;91.70;;;;;;5056926;28;20057;-82
2023/04/02 13:02:13;;;;;;;5.32;1.50;;;9.90;92.80;;;;;;5056705;28;20601;-82
2023/04/02 13:04:49;;;;;;;5.95;1.50;;;9.90;92.10;;;;;;5056810;28;20052;-81
2023/04/02 13:07:18;;;;;;;4.95;1.40;;;10.20;91.90;;;;;;5056063;28;20501;-82
2023/04/02 13:09:49;;;;;;;4.72;1.50;;;10.10;92.60;;;;;;5056110;28;20503;-81
2023/04/02 13:12:35;;;;;;;4.93;1.40;;;10.20;92.50;;;;;;5056724;28;20141;-82
2023/04/02 13:15:04;;;;;;;5.70;1.50;;;10.20;92.30;;;;;;5055861;28;20554;-81
2023/04/02 13:17:36;;;;;;;4.63;1.40;;;10.20;93.00;;;;;;5056051;28;20045;-82
2023/04/02 13:20:28;;;;;;;5.43;1.50;;;10.20;92.80;;;;;;5056447;28;20129;-82
2023/04/02 13:22:55;;;;;;;4.75;1.30;;;10.20;93.70;;;;;;5039468;28;20053;-83
2023/04/02 13:25:31;;;;;;;5.15;1.40;;;10.20;93.60;;;;;;5056331;28;20515;-81
2023/04/02 13:27:57;;;;;;;5.75;1.30;;;10.50;93.60;;;;;;5039850;28;20048;-81
2023/04/02 13:30:26;;;;;;;4.32;1.00;;;10.30;91.90;;;;;;5072793;28;20087;-80
2023/04/02 13:32:52;;;;;;;6.40;1.40;;;10.10;92.00;;;;;;5056379;28;20040;-80
2023/04/02 13:35:18;;;;;;;5.32;1.30;;;10.10;93.10;;;;;;5072662;28;20198;-79
2023/04/02 13:37:44;;;;;;;4.63;1.30;;;10.10;93.50;;;;;;5039412;28;20091;-80
2023/04/02 13:40:18;;;;;;;4.50;1.00;;;10.20;92.70;;;;;;5039151;28;20052;-81
2023/04/02 13:42:48;;;;;;;4.78;1.20;;;10.20;92.10;;;;;;5055539;28;20045;-81